Time;durP1;ratioP1;P1;durP2;ratioP2;P2;SDS_P1;SDS_P2;PMS_P1;PMS_P2;Temp;Humidity;BMP_temperature;BMP_pressure;BME280_temperature;BME280_humidity;BME280_pressure;Samples;Min_cycle;Max_cycle;Signal;HPM_P1;HPM_P2
2022/08/16 00:00:39;;;;;;;13.10;6.80;;;;;;;25.68;59.27;98685.33;25106;1316;3027502;-64
2022/08/16 00:03:09;;;;;;;11.80;6.70;;;;;;;25.61;59.79;98683.92;25106;1313;3027061;-64
2022/08/16 00:05:38;;;;;;;12.60;6.60;;;;;;;25.57;59.07;98679.77;25089;1313;3026483;-65
2022/08/16 00:08:07;;;;;;;14.20;6.30;;;;;;;25.55;59.53;98666.33;25081;1312;3026645;-64
2022/08/16 00:10:36;;;;;;;12.30;5.90;;;;;;;25.55;59.94;98657.46;25115;1313;3070777;-61
2022/08/16 00:13:06;;;;;;;12.00;5.60;;;;;;;25.53;61.22;98651.45;25074;1313;3026906;-62
2022/08/16 00:15:44;;;;;;;11.50;6.70;;;;;;;25.52;61.38;98654.54;25083;1313;3053456;-63
2022/08/16 00:18:14;;;;;;;12.50;6.50;;;;;;;25.50;61.80;98656.77;25051;1313;3069128;-66
2022/08/16 00:20:44;;;;;;;10.30;6.20;;;;;;;25.49;61.50;98661.45;25059;1313;3026953;-64
2022/08/16 00:23:13;;;;;;;14.80;6.30;;;;;;;25.46;61.66;98661.54;25117;1313;3026396;-64
2022/08/16 00:25:42;;;;;;;14.20;6.20;;;;;;;25.43;62.30;98656.25;25099;1313;3026562;-64
2022/08/16 00:28:11;;;;;;;13.00;6.50;;;;;;;25.39;61.91;98654.11;25107;1313;3051089;-61
2022/08/16 00:30:40;;;;;;;15.40;6.50;;;;;;;25.40;62.01;98647.52;25133;1313;3026395;-60
2022/08/16 00:33:09;;;;;;;11.70;6.40;;;;;;;25.34;62.42;98641.58;25063;1313;3067721;-66
2022/08/16 00:35:38;;;;;;;14.40;7.10;;;;;;;25.30;62.68;98642.75;25073;1316;3026430;-65
2022/08/16 00:38:07;;;;;;;14.80;7.10;;;;;;;25.25;62.63;98643.63;25070;1316;3052766;-65
2022/08/16 00:40:46;;;;;;;14.60;6.70;;;;;;;25.19;63.24;98642.77;25095;1313;3026540;-63
2022/08/16 00:43:27;;;;;;;14.90;6.50;;;;;;;25.15;62.75;98639.71;25075;1316;3055935;-65
2022/08/16 00:46:14;;;;;;;14.40;6.90;;;;;;;25.11;64.07;98637.24;25130;1316;3050485;-63
2022/08/16 00:48:44;;;;;;;18.30;7.00;;;;;;;25.06;64.36;98634.34;25048;1313;3071104;-61
2022/08/16 00:51:13;;;;;;;15.80;7.70;;;;;;;25.04;63.22;98625.45;25050;1313;3027139;-63
2022/08/16 00:53:43;;;;;;;12.00;6.40;;;;;;;25.03;63.11;98611.70;25086;1313;3026437;-63
2022/08/16 00:56:15;;;;;;;14.10;6.50;;;;;;;25.03;62.71;98617.98;25095;1313;3027570;-60
2022/08/16 00:58:45;;;;;;;20.90;6.60;;;;;;;25.05;61.67;98616.61;25117;1316;3028604;-64
2022/08/16 01:01:15;;;;;;;13.80;6.30;;;;;;;25.05;61.63;98616.06;25096;1316;3026563;-64
2022/08/16 01:03:46;;;;;;;13.00;6.50;;;;;;;25.05;61.09;98614.38;25092;1316;3027471;-62
2022/08/16 01:06:17;;;;;;;11.50;6.20;;;;;;;25.07;61.07;98613.92;25070;1316;3028591;-64
2022/08/16 01:08:49;;;;;;;15.00;6.30;;;;;;;25.08;60.42;98607.85;25093;1313;3027000;-62
2022/08/16 01:11:18;;;;;;;14.70;6.70;;;;;;;25.09;59.70;98602.77;25147;1313;3027150;-64
2022/08/16 01:13:48;;;;;;;14.30;7.60;;;;;;;25.11;59.20;98598.05;25276;1313;3026515;-60
2022/08/16 01:16:20;;;;;;;10.80;6.30;;;;;;;25.14;58.69;98588.91;25322;1313;3026107;-58
2022/08/16 01:18:53;;;;;;;13.40;7.30;;;;;;;25.17;58.62;98590.43;25171;1319;3027010;-60
2022/08/16 01:21:28;;;;;;;15.30;7.10;;;;;;;25.14;58.82;98595.68;25076;1315;3048902;-63
2022/08/16 01:24:17;;;;;;;20.20;7.40;;;;;;;25.12;58.14;98598.86;25016;1316;3056049;-64
2022/08/16 01:26:47;;;;;;;18.00;9.00;;;;;;;25.09;58.15;98598.79;25047;1318;3052934;-61
2022/08/16 01:29:26;;;;;;;14.60;7.90;;;;;;;25.05;58.97;98607.92;24994;1316;3027483;-64
2022/08/16 01:31:55;;;;;;;14.30;8.30;;;;;;;25.00;58.56;98614.38;25083;1315;3049513;-62
2022/08/16 01:34:24;;;;;;;15.60;7.80;;;;;;;24.97;58.24;98625.05;25138;1316;3026223;-62
2022/08/16 01:36:58;;;;;;;14.70;7.70;;;;;;;24.94;58.60;98635.39;25054;1316;3027494;-64
2022/08/16 01:39:28;;;;;;;15.60;8.40;;;;;;;24.91;59.30;98641.38;25131;1316;3055734;-62
2022/08/16 01:41:59;;;;;;;17.00;8.20;;;;;;;24.87;59.52;98641.70;25149;1316;3026927;-66
2022/08/16 01:44:28;;;;;;;16.30;8.30;;;;;;;24.85;59.66;98636.66;25083;1316;3027217;-62
2022/08/16 01:46:57;;;;;;;15.20;8.50;;;;;;;24.84;59.69;98629.59;25069;1316;3026397;-65
2022/08/16 01:49:32;;;;;;;16.90;8.30;;;;;;;24.83;59.56;98616.45;25038;1316;3049604;-65
2022/08/16 01:52:11;;;;;;;19.10;8.60;;;;;;;24.83;59.13;98607.11;25117;1316;3057562;-64
2022/08/16 01:54:55;;;;;;;15.70;8.00;;;;;;;24.82;58.90;98602.61;25149;1316;3052849;-65
2022/08/16 01:57:24;;;;;;;18.20;7.90;;;;;;;24.84;58.86;98602.73;25125;1318;3026773;-64
2022/08/16 01:59:54;;;;;;;14.60;7.90;;;;;;;24.87;58.60;98611.24;25121;1316;3026797;-64
2022/08/16 02:02:23;;;;;;;16.10;8.00;;;;;;;24.87;58.63;98611.36;25054;1316;3026642;-64
2022/08/16 02:04:52;;;;;;;16.00;7.70;;;;;;;24.88;57.98;98625.80;25130;1316;3030455;-64
2022/08/16 02:07:21;;;;;;;17.50;8.30;;;;;;;24.87;58.02;98637.77;24993;1316;3051088;-64
2022/08/16 02:09:50;;;;;;;18.10;9.10;;;;;;;24.87;58.46;98645.88;25117;1315;3026482;-64
2022/08/16 02:12:19;;;;;;;16.10;8.20;;;;;;;24.86;58.04;98659.39;25089;1316;3070275;-65
2022/08/16 02:14:49;;;;;;;17.10;8.00;;;;;;;24.85;57.84;98667.28;25052;1315;3029646;-69
2022/08/16 02:17:19;;;;;;;17.20;7.90;;;;;;;24.84;57.93;98664.55;25060;1316;3026457;-67
2022/08/16 02:19:50;;;;;;;20.00;7.80;;;;;;;24.82;57.67;98670.66;25147;1316;3026187;-65
2022/08/16 02:22:20;;;;;;;16.70;9.20;;;;;;;24.81;57.47;98685.09;25018;1316;3026885;-65
2022/08/16 02:24:49;;;;;;;19.60;8.40;;;;;;;24.79;57.31;98693.94;25113;1316;3026738;-66
2022/08/16 02:27:19;;;;;;;17.60;8.20;;;;;;;24.79;57.45;98696.78;25057;1316;3026621;-66
2022/08/16 02:29:48;;;;;;;16.50;9.00;;;;;;;24.78;57.61;98700.01;25091;1315;3026901;-64
2022/08/16 02:32:17;;;;;;;14.30;8.30;;;;;;;24.76;57.39;98701.73;25017;1316;3048156;-63
2022/08/16 02:34:46;;;;;;;17.90;8.50;;;;;;;24.75;56.92;98706.06;25028;1315;3025817;-61
2022/08/16 02:37:16;;;;;;;13.70;8.70;;;;;;;24.72;57.15;98708.17;25073;1316;3058407;-66
2022/08/16 02:39:45;;;;;;;18.00;9.20;;;;;;;24.67;57.92;98711.88;25079;1316;3027244;-67
2022/08/16 02:42:14;;;;;;;17.40;8.80;;;;;;;24.63;58.51;98721.81;25091;1316;3026783;-60
2022/08/16 02:44:43;;;;;;;16.70;8.40;;;;;;;24.64;58.33;98723.36;25005;1315;3026431;-63
2022/08/16 02:47:12;;;;;;;20.20;8.90;;;;;;;24.63;59.15;98729.95;25083;1315;3048782;-64
2022/08/16 02:49:44;;;;;;;21.10;10.60;;;;;;;24.48;61.98;98740.95;25053;1316;3028200;-64
2022/08/16 02:52:14;;;;;;;18.30;9.10;;;;;;;24.24;63.10;98740.94;25191;1316;3026962;-66
2022/08/16 02:54:43;;;;;;;19.20;9.20;;;;;;;24.09;62.39;98742.96;24962;1316;3026901;-67
2022/08/16 02:57:12;;;;;;;21.80;9.40;;;;;;;23.85;64.71;98745.46;25114;1316;3055314;-68
2022/08/16 02:59:42;;;;;;;20.30;8.80;;;;;;;23.78;65.97;98752.98;25048;1315;3029354;-66
2022/08/16 03:02:12;;;;;;;16.00;6.90;;;;;;;23.68;67.88;98760.67;25007;1316;3051518;-65
2022/08/16 03:04:41;;;;;;;21.10;7.90;;;;;;;23.94;68.24;98761.98;25057;1316;3029726;-64
2022/08/16 03:07:10;;;;;;;17.90;8.40;;;;;;;24.09;67.84;98762.70;25103;1316;3026821;-68
2022/08/16 03:09:43;;;;;;;15.00;7.60;;;;;;;23.98;68.32;98766.52;24972;1318;3051288;-68
2022/08/16 03:12:12;;;;;;;19.20;7.90;;;;;;;23.72;69.72;98759.09;25014;1318;3026843;-63
2022/08/16 03:14:42;;;;;;;16.40;7.80;;;;;;;23.52;70.54;98752.67;25082;1316;3026635;-66
2022/08/16 03:17:11;;;;;;;21.70;7.80;;;;;;;23.24;72.20;98749.36;25024;1315;3026450;-67
2022/08/16 03:19:41;;;;;;;12.90;6.80;;;;;;;23.07;73.00;98735.70;25044;1316;3026594;-64
2022/08/16 03:22:10;;;;;;;15.50;5.60;;;;;;;23.07;73.08;98725.66;25069;1316;3026719;-62
2022/08/16 03:24:40;;;;;;;16.90;6.30;;;;;;;23.55;71.51;98724.45;25109;1315;3069650;-69
2022/08/16 03:27:09;;;;;;;17.30;5.90;;;;;;;23.98;69.87;98709.85;25055;1315;3026924;-67
2022/08/16 03:29:38;;;;;;;10.30;5.60;;;;;;;24.11;68.85;98695.67;25093;1315;3027509;-64
2022/08/16 03:32:08;;;;;;;19.90;6.90;;;;;;;23.94;68.90;98703.55;25133;1315;3027090;-65
2022/08/16 03:34:39;;;;;;;17.90;6.60;;;;;;;23.56;70.38;98720.04;25046;1315;3026374;-67
2022/08/16 03:37:08;;;;;;;16.20;6.80;;;;;;;23.26;71.79;98730.53;25121;1316;3026935;-65
2022/08/16 03:39:38;;;;;;;15.20;6.30;;;;;;;22.97;72.67;98746.23;25057;1316;3026636;-64
2022/08/16 03:42:07;;;;;;;10.50;3.70;;;;;;;22.83;73.06;98740.32;25003;1317;3026098;-65
2022/08/16 03:44:36;;;;;;;9.10;3.50;;;;;;;23.32;71.83;98737.42;25032;1315;3049510;-66
2022/08/16 03:47:05;;;;;;;15.60;4.50;;;;;;;23.85;69.95;98739.63;25103;1316;3026818;-66
2022/08/16 03:49:35;;;;;;;12.10;4.90;;;;;;;23.88;70.26;98748.70;25115;1315;3058205;-64
2022/08/16 03:52:04;;;;;;;9.70;4.40;;;;;;;23.72;70.46;98758.73;25088;1315;3026884;-64
2022/08/16 03:54:34;;;;;;;12.60;4.60;;;;;;;23.59;70.71;98758.27;25124;1315;3026565;-66
2022/08/16 03:57:03;;;;;;;13.80;4.60;;;;;;;23.38;71.86;98746.42;25055;1316;3028936;-66
2022/08/16 03:59:32;;;;;;;12.20;5.80;;;;;;;23.23;72.68;98718.92;25080;1318;3049571;-66
2022/08/16 04:02:05;;;;;;;7.90;3.80;;;;;;;23.10;73.69;98701.85;25020;1318;3027766;-62
2022/08/16 04:04:35;;;;;;;8.40;4.10;;;;;;;23.59;72.52;98702.98;25101;1316;3026517;-63
2022/08/16 04:07:06;;;;;;;9.50;4.90;;;;;;;23.88;71.21;98672.69;25126;1316;3027482;-63
2022/08/16 04:09:35;;;;;;;14.90;4.80;;;;;;;23.71;70.50;98687.14;25103;1316;3026813;-61
2022/08/16 04:12:05;;;;;;;9.60;4.40;;;;;;;23.65;70.04;98702.77;25089;1316;3026730;-65
2022/08/16 04:14:34;;;;;;;12.90;5.30;;;;;;;23.59;71.23;98714.79;25160;1315;3068680;-65
2022/08/16 04:17:04;;;;;;;14.80;5.50;;;;;;;23.45;72.68;98716.50;25122;1316;3026419;-66
2022/08/16 04:19:36;;;;;;;11.60;5.00;;;;;;;23.26;73.66;98718.66;25143;1316;3026682;-68
2022/08/16 04:22:05;;;;;;;6.20;3.40;;;;;;;23.13;73.91;98728.92;25067;1315;3026835;-67
2022/08/16 04:24:39;;;;;;;11.50;4.20;;;;;;;23.67;72.24;98733.86;25063;1313;3058846;-66
2022/08/16 04:27:08;;;;;;;7.80;4.30;;;;;;;24.04;70.66;98734.81;25041;1315;3026705;-67
2022/08/16 04:29:37;;;;;;;9.20;4.90;;;;;;;24.03;70.37;98733.19;25045;1316;3052208;-66
2022/08/16 04:32:06;;;;;;;8.30;4.70;;;;;;;23.87;70.47;98736.84;25157;1316;3028240;-67
2022/08/16 04:34:38;;;;;;;10.80;5.60;;;;;;;23.68;71.72;98737.90;25133;1315;3052000;-65
2022/08/16 04:37:07;;;;;;;10.80;5.60;;;;;;;23.47;72.09;98735.94;25141;1315;3028480;-67
2022/08/16 04:39:40;;;;;;;10.20;5.60;;;;;;;23.35;71.92;98740.58;25156;1313;3026739;-68
2022/08/16 04:42:10;;;;;;;8.70;5.10;;;;;;;23.22;72.50;98742.66;25116;1313;3026528;-67
2022/08/16 04:44:39;;;;;;;10.70;3.80;;;;;;;23.11;72.75;98742.45;25071;1313;3026461;-67
2022/08/16 04:47:08;;;;;;;10.00;3.90;;;;;;;23.56;71.02;98744.66;25114;1313;3027406;-64
2022/08/16 04:49:37;;;;;;;10.50;4.40;;;;;;;23.99;68.93;98749.80;25106;1316;3048858;-65
2022/08/16 04:52:07;;;;;;;10.50;5.00;;;;;;;24.00;68.96;98748.01;25100;1313;3026883;-66
2022/08/16 04:54:36;;;;;;;11.00;4.70;;;;;;;23.87;68.77;98752.27;25132;1316;3055615;-67
2022/08/16 04:57:05;;;;;;;12.20;5.30;;;;;;;23.60;69.25;98745.36;25081;1316;3026303;-64
2022/08/16 04:59:34;;;;;;;8.90;4.70;;;;;;;23.32;69.56;98748.15;25103;1316;3051522;-62
2022/08/16 05:02:03;;;;;;;12.60;5.00;;;;;;;23.22;69.24;98746.04;25186;1313;3026569;-64
2022/08/16 05:04:33;;;;;;;10.50;4.20;;;;;;;23.09;69.64;98742.73;25160;1313;3054220;-70
2022/08/16 05:07:03;;;;;;;10.30;4.50;;;;;;;23.07;69.69;98744.93;25290;1313;3027204;-65
2022/08/16 05:09:48;;;;;;;8.70;4.20;;;;;;;22.89;69.30;98757.40;25250;1313;3059058;-68
2022/08/16 05:12:17;;;;;;;10.10;3.80;;;;;;;22.86;71.02;98759.09;25188;1316;3026882;-70
2022/08/16 05:14:46;;;;;;;9.60;3.20;;;;;;;23.50;69.53;98751.30;25141;1313;3028513;-65
2022/08/16 05:17:18;;;;;;;8.10;3.60;;;;;;;24.27;66.33;98746.43;25135;1313;3058127;-68
2022/08/16 05:19:49;;;;;;;11.90;4.30;;;;;;;24.21;65.95;98753.73;25098;1316;3026734;-66
2022/08/16 05:22:19;;;;;;;9.10;4.30;;;;;;;24.06;65.66;98766.02;25095;1313;3029227;-67
2022/08/16 05:24:53;;;;;;;13.70;4.60;;;;;;;23.93;65.52;98770.23;25086;1313;3052685;-66
2022/08/16 05:27:22;;;;;;;10.30;4.50;;;;;;;23.69;66.17;98790.92;25118;1313;3026527;-65
2022/08/16 05:29:51;;;;;;;13.30;4.60;;;;;;;23.46;65.87;98794.16;25086;1313;3055020;-62
2022/08/16 05:32:21;;;;;;;9.80;4.30;;;;;;;23.36;67.17;98789.40;25106;1313;3026708;-66
2022/08/16 05:34:50;;;;;;;14.20;4.60;;;;;;;23.32;68.17;98783.77;25142;1313;3026728;-68
2022/08/16 05:37:22;;;;;;;10.10;3.00;;;;;;;23.25;68.77;98773.52;25107;1313;3054694;-64
2022/08/16 05:39:51;;;;;;;10.50;3.60;;;;;;;23.78;67.37;98781.08;25113;1313;3026501;-68
2022/08/16 05:42:20;;;;;;;15.60;4.80;;;;;;;24.23;67.92;98795.39;25188;1313;3026820;-68
2022/08/16 05:44:50;;;;;;;14.50;4.80;;;;;;;24.34;67.90;98822.50;25070;1315;3052036;-67
2022/08/16 05:47:20;;;;;;;15.00;6.00;;;;;;;24.21;68.71;98851.98;25112;1315;3027182;-66
2022/08/16 05:49:49;;;;;;;10.30;4.70;;;;;;;24.04;69.37;98842.36;25059;1315;3027474;-66
2022/08/16 05:52:19;;;;;;;14.40;4.80;;;;;;;23.88;69.89;98846.62;25124;1316;3027518;-68
2022/08/16 05:54:49;;;;;;;17.00;4.70;;;;;;;23.75;70.83;98849.51;25115;1316;3055544;-64
2022/08/16 05:57:20;;;;;;;10.60;4.30;;;;;;;23.70;70.93;98842.69;25114;1316;3027007;-66
2022/08/16 05:59:49;;;;;;;11.90;3.70;;;;;;;24.23;68.82;98842.41;25084;1314;3026601;-65
2022/08/16 06:02:18;;;;;;;12.70;4.30;;;;;;;24.69;67.60;98858.02;25140;1316;3053438;-65
2022/08/16 06:04:48;;;;;;;15.40;4.50;;;;;;;24.72;67.91;98881.87;25124;1316;3026925;-67
2022/08/16 06:07:18;;;;;;;14.40;5.30;;;;;;;24.57;68.66;98888.66;25137;1316;3027029;-68
2022/08/16 06:09:50;;;;;;;15.10;5.70;;;;;;;24.40;69.43;98892.73;25109;1315;3026899;-69
2022/08/16 06:12:19;;;;;;;11.40;5.50;;;;;;;24.25;69.81;98891.77;25061;1316;3026779;-68
2022/08/16 06:14:48;;;;;;;12.00;6.30;;;;;;;24.06;70.58;98888.81;25136;1313;3048702;-67
2022/08/16 06:17:17;;;;;;;13.20;3.80;;;;;;;23.91;71.95;98888.73;25083;1313;3026536;-70
2022/08/16 06:19:46;;;;;;;10.60;5.20;;;;;;;24.30;71.60;98891.86;25114;1313;3070923;-64
2022/08/16 06:22:16;;;;;;;13.30;6.90;;;;;;;24.69;70.34;98889.95;25132;1313;3027361;-63
2022/08/16 06:24:45;;;;;;;12.50;5.90;;;;;;;24.68;70.08;98892.26;25153;1313;3026447;-66
2022/08/16 06:27:14;;;;;;;16.00;6.70;;;;;;;24.61;70.39;98891.30;25135;1312;3029399;-67
2022/08/16 06:29:43;;;;;;;15.60;7.00;;;;;;;24.44;70.90;98891.31;25074;1315;3050777;-64
2022/08/16 06:32:13;;;;;;;13.40;7.30;;;;;;;24.33;70.90;98893.72;25040;1313;3026849;-66
2022/08/16 06:34:42;;;;;;;13.60;7.10;;;;;;;24.19;71.98;98891.44;25164;1315;3026698;-59
2022/08/16 06:37:13;;;;;;;10.40;5.20;;;;;;;24.09;72.76;98877.66;25119;1315;3052293;-60
2022/08/16 06:39:44;;;;;;;16.00;6.20;;;;;;;24.59;71.04;98865.71;25216;1313;3026763;-59
2022/08/16 06:42:34;;;;;;;18.20;7.20;;;;;;;25.01;68.78;98840.58;25126;1316;3052796;-58
2022/08/16 06:45:36;;;;;;;13.40;7.50;;;;;;;24.87;69.08;98824.52;25154;1313;3058849;-59
2022/08/16 06:48:12;;;;;;;15.30;8.90;;;;;;;24.72;69.98;98809.36;25115;1313;3051689;-59
2022/08/16 06:50:41;;;;;;;22.50;8.90;;;;;;;24.46;70.55;98801.73;25061;1313;3026928;-59
2022/08/16 06:53:11;;;;;;;16.10;8.60;;;;;;;24.23;71.56;98807.00;25086;1313;3057080;-59
2022/08/16 06:55:43;;;;;;;17.30;8.60;;;;;;;24.03;72.46;98809.14;25036;1316;3026552;-58
2022/08/16 06:58:15;;;;;;;17.30;6.90;;;;;;;23.95;72.71;98798.31;25132;1311;3026428;-63
2022/08/16 07:00:44;;;;;;;14.90;7.70;;;;;;;24.41;71.99;98784.52;25111;1313;3027557;-58
2022/08/16 07:03:13;;;;;;;17.10;7.80;;;;;;;24.91;70.41;98771.94;25042;1313;3028216;-58
2022/08/16 07:05:42;;;;;;;19.50;9.00;;;;;;;25.01;69.86;98761.01;25064;1316;3054732;-57
2022/08/16 07:08:24;;;;;;;18.80;9.10;;;;;;;24.82;70.59;98769.73;25220;1313;3051270;-58
2022/08/16 07:10:54;;;;;;;19.50;9.90;;;;;;;24.59;71.74;98777.14;25029;1316;3026479;-59
2022/08/16 07:13:23;;;;;;;17.30;9.70;;;;;;;24.39;72.86;98773.54;25052;1313;3028592;-59
2022/08/16 07:15:53;;;;;;;14.90;6.70;;;;;;;24.26;73.12;98779.77;25080;1316;3026889;-57
2022/08/16 07:18:25;;;;;;;15.80;8.20;;;;;;;24.64;73.03;98791.42;25071;1316;3026399;-59
2022/08/16 07:20:56;;;;;;;23.50;11.90;;;;;;;25.05;71.15;98803.05;25101;1315;3026450;-58
2022/08/16 07:23:27;;;;;;;18.80;10.50;;;;;;;25.08;71.16;98801.20;25039;1316;3053024;-61
2022/08/16 07:25:59;;;;;;;24.60;11.80;;;;;;;24.97;70.40;98784.34;25004;1316;3026489;-59
2022/08/16 07:28:28;;;;;;;23.40;12.60;;;;;;;24.81;70.29;98790.21;25028;1318;3026560;-59
2022/08/16 07:30:58;;;;;;;16.70;10.10;;;;;;;24.68;70.84;98798.35;24992;1316;3053350;-57
2022/08/16 07:33:43;;;;;;;19.70;10.90;;;;;;;24.56;71.20;98797.12;25024;1315;3054562;-57
2022/08/16 07:36:13;;;;;;;16.70;7.90;;;;;;;24.50;71.42;98799.86;25090;1315;3026693;-59
2022/08/16 07:38:46;;;;;;;18.80;9.10;;;;;;;25.02;69.53;98795.55;25087;1316;3051059;-59
2022/08/16 07:41:16;;;;;;;19.20;10.00;;;;;;;25.43;67.84;98795.73;25126;1316;3026371;-57
2022/08/16 07:43:48;;;;;;;22.40;9.20;;;;;;;25.51;66.65;98794.41;25079;1316;3027358;-57
2022/08/16 07:46:17;;;;;;;22.80;9.80;;;;;;;25.39;65.84;98795.48;25048;1316;3026476;-59
2022/08/16 07:48:47;;;;;;;19.00;9.70;;;;;;;25.20;65.89;98806.96;25051;1316;3026640;-59
2022/08/16 07:51:16;;;;;;;23.60;9.90;;;;;;;24.99;66.05;98802.86;25085;1315;3026114;-60
2022/08/16 07:53:50;;;;;;;19.50;9.50;;;;;;;24.82;66.53;98810.63;25021;1316;3070440;-57
2022/08/16 07:56:20;;;;;;;22.60;10.90;;;;;;;24.69;66.55;98813.60;25136;1315;3049131;-55
2022/08/16 07:58:49;;;;;;;22.90;10.40;;;;;;;24.58;66.27;98814.48;25031;1316;3028498;-56
2022/08/16 08:01:18;;;;;;;20.20;10.90;;;;;;;24.49;66.06;98820.55;25122;1315;3026868;-57
2022/08/16 08:03:51;;;;;;;26.90;11.60;;;;;;;24.40;66.02;98818.20;25028;1316;3052120;-57
2022/08/16 08:06:27;;;;;;;25.00;11.60;;;;;;;24.35;66.80;98818.61;25149;1315;3027421;-56
2022/08/16 08:08:59;;;;;;;24.30;11.80;;;;;;;24.31;67.01;98821.16;25067;1315;3051611;-56
2022/08/16 08:11:28;;;;;;;21.50;8.90;;;;;;;24.31;66.81;98816.94;25086;1315;3027010;-57
2022/08/16 08:14:00;;;;;;;21.50;9.00;;;;;;;24.95;65.09;98818.63;25086;1316;3026687;-58
2022/08/16 08:16:30;;;;;;;24.70;11.00;;;;;;;25.53;62.99;98824.35;25063;1316;3026389;-54
2022/08/16 08:19:00;;;;;;;22.80;11.30;;;;;;;25.57;62.58;98827.95;25113;1315;3026856;-57
2022/08/16 08:21:31;;;;;;;20.80;10.90;;;;;;;25.58;62.15;98838.02;25027;1316;3026776;-57
2022/08/16 08:24:00;;;;;;;21.50;10.60;;;;;;;25.40;62.34;98842.17;25075;1318;3056346;-57
2022/08/16 08:26:29;;;;;;;25.30;11.10;;;;;;;25.13;63.54;98843.78;25117;1316;3026713;-57
2022/08/16 08:28:59;;;;;;;21.30;11.00;;;;;;;25.00;63.65;98843.63;25099;1313;3052161;-59
2022/08/16 08:31:28;;;;;;;22.40;10.30;;;;;;;24.88;63.73;98850.95;25159;1313;3026388;-57
2022/08/16 08:33:59;;;;;;;28.90;10.60;;;;;;;24.74;64.17;98855.02;25087;1315;3026648;-57
2022/08/16 08:36:30;;;;;;;29.60;11.20;;;;;;;24.62;64.83;98858.99;25078;1313;3049809;-58
2022/08/16 08:39:02;;;;;;;24.90;11.10;;;;;;;24.49;65.72;98866.48;25466;1315;3026399;-58
2022/08/16 08:41:31;;;;;;;21.10;10.20;;;;;;;24.37;66.87;98865.58;25102;1319;3027416;-58
2022/08/16 08:44:03;;;;;;;16.50;8.10;;;;;;;24.33;67.95;98861.80;25096;1315;3027147;-57
2022/08/16 08:46:32;;;;;;;19.00;9.40;;;;;;;24.86;66.70;98860.35;25119;1315;3026674;-57
2022/08/16 08:49:02;;;;;;;16.80;9.10;;;;;;;25.41;64.62;98859.92;25069;1313;3026654;-58
2022/08/16 08:51:37;;;;;;;21.90;9.50;;;;;;;25.47;63.91;98865.06;25065;1316;3067771;-57
2022/08/16 08:54:07;;;;;;;20.10;9.30;;;;;;;25.29;64.37;98867.61;25091;1314;3026444;-60
2022/08/16 08:56:37;;;;;;;23.50;9.60;;;;;;;25.17;64.80;98873.86;25055;1313;3027129;-57
2022/08/16 08:59:12;;;;;;;17.10;9.90;;;;;;;24.93;65.45;98880.43;25125;1316;3055458;-53
2022/08/16 09:01:42;;;;;;;19.50;10.50;;;;;;;24.79;66.20;98876.28;25088;1313;3026302;-56
2022/08/16 09:04:11;;;;;;;20.30;10.10;;;;;;;24.62;67.10;98861.44;25065;1316;3026335;-58
2022/08/16 09:06:42;;;;;;;19.70;10.10;;;;;;;24.50;67.85;98858.30;25087;1316;3051472;-58
2022/08/16 09:09:12;;;;;;;16.70;9.70;;;;;;;24.41;68.39;98853.34;25033;1318;3028953;-55
2022/08/16 09:11:43;;;;;;;15.70;7.50;;;;;;;24.38;68.80;98847.10;25115;1316;3026925;-56
2022/08/16 09:14:13;;;;;;;13.70;7.90;;;;;;;24.96;67.02;98839.14;25056;1316;3026227;-56
2022/08/16 09:16:42;;;;;;;20.90;7.80;;;;;;;25.50;63.45;98832.59;25053;1316;3026236;-57
2022/08/16 09:19:12;;;;;;;17.00;8.20;;;;;;;25.55;62.85;98827.09;25090;1316;3049372;-59
2022/08/16 09:21:41;;;;;;;14.50;8.20;;;;;;;25.48;62.80;98820.14;25054;1314;3026487;-57
2022/08/16 09:24:10;;;;;;;16.90;8.60;;;;;;;25.36;62.56;98818.66;25140;1316;3058245;-56
2022/08/16 09:26:40;;;;;;;15.20;7.70;;;;;;;25.28;62.92;98817.05;25100;1316;3027174;-57
2022/08/16 09:29:09;;;;;;;18.00;8.10;;;;;;;25.21;63.64;98823.55;25054;1316;3027298;-57
2022/08/16 09:31:40;;;;;;;21.30;9.20;;;;;;;25.25;62.95;98832.61;25056;1313;3026957;-56
2022/08/16 09:34:09;;;;;;;17.80;9.20;;;;;;;25.32;63.23;98834.12;25068;1313;3026377;-56
2022/08/16 09:36:38;;;;;;;21.00;8.20;;;;;;;25.27;62.74;98838.86;25191;1313;3028511;-57
2022/08/16 09:39:07;;;;;;;13.30;7.60;;;;;;;25.27;61.13;98834.52;25207;1313;3028071;-56
2022/08/16 09:41:37;;;;;;;17.30;8.10;;;;;;;25.36;60.18;98833.27;25115;1316;3071294;-55
2022/08/16 09:44:06;;;;;;;15.60;7.80;;;;;;;25.41;59.81;98835.89;25240;1313;3026506;-57
2022/08/16 09:46:36;;;;;;;18.20;8.50;;;;;;;25.53;59.47;98824.56;25177;1313;3050466;-57
2022/08/16 09:49:05;;;;;;;13.80;7.80;;;;;;;25.64;58.97;98819.48;25116;1313;3026605;-55
2022/08/16 09:51:34;;;;;;;15.30;8.40;;;;;;;25.77;58.49;98821.46;25118;1313;3055779;-54
2022/08/16 09:54:04;;;;;;;19.50;8.10;;;;;;;25.83;58.27;98817.65;25143;1313;3026651;-56
2022/08/16 09:56:35;;;;;;;14.60;8.60;;;;;;;25.93;57.70;98819.42;25180;1316;3050125;-56
2022/08/16 09:59:02;;;;;;;14.60;8.60;;;;;;;25.89;57.10;98816.19;24415;1313;3027597;-56
2022/08/16 10:01:32;;;;;;;16.90;9.50;;;;;;;26.10;57.41;98813.84;25161;1313;3031548;-55
2022/08/16 10:04:01;;;;;;;22.30;9.10;;;;;;;26.33;56.76;98819.79;25056;1313;3026607;-57
2022/08/16 10:06:30;;;;;;;14.10;8.00;;;;;;;26.37;57.09;98817.39;25090;1312;3055177;-55
2022/08/16 10:09:01;;;;;;;14.50;8.20;;;;;;;26.43;56.55;98814.92;25052;1316;3026189;-56
2022/08/16 10:14:17;;;;;;;18.40;9.20;;;;;;;26.50;56.70;98815.55;25097;1316;3053528;-57
2022/08/16 10:16:47;;;;;;;17.70;9.40;;;;;;;26.70;55.85;98813.63;25082;1316;3026706;-55
2022/08/16 10:19:16;;;;;;;16.30;9.20;;;;;;;26.78;55.19;98824.59;25078;1316;3052493;-58
2022/08/16 10:21:45;;;;;;;19.90;8.40;;;;;;;26.87;55.28;98831.73;25100;1313;3026397;-54
2022/08/16 10:24:14;;;;;;;22.70;11.10;;;;;;;27.05;54.92;98829.48;25106;1313;3056264;-54
2022/08/16 10:26:44;;;;;;;26.90;13.20;;;;;;;27.29;53.60;98827.19;25047;1313;3028985;-57
2022/08/16 10:29:13;;;;;;;23.80;12.00;;;;;;;27.52;52.77;98835.17;25079;1316;3027442;-56
2022/08/16 10:31:42;;;;;;;30.80;14.90;;;;;;;27.73;51.15;98838.23;25074;1313;3026268;-56
2022/08/16 10:34:11;;;;;;;26.10;14.20;;;;;;;27.74;50.29;98837.94;25078;1313;3026334;-55
2022/08/16 10:36:40;;;;;;;25.50;13.50;;;;;;;27.88;50.44;98834.88;25057;1313;3055014;-56
2022/08/16 10:39:09;;;;;;;25.40;13.90;;;;;;;28.04;50.09;98841.32;25126;1313;3026879;-56
2022/08/16 10:41:38;;;;;;;21.60;13.10;;;;;;;28.12;50.02;98847.11;25097;1313;3051886;-56
2022/08/16 10:44:08;;;;;;;24.80;12.40;;;;;;;28.25;49.81;98850.92;25037;1313;3025817;-56
2022/08/16 10:46:37;;;;;;;20.20;11.80;;;;;;;28.21;50.00;98855.86;25037;1313;3055168;-57
2022/08/16 10:49:06;;;;;;;28.80;13.50;;;;;;;28.17;50.58;98850.55;25122;1313;3028864;-56
2022/08/16 10:51:37;;;;;;;25.90;13.70;;;;;;;28.19;50.24;98847.87;25042;1316;3054244;-61
2022/08/16 10:54:07;;;;;;;24.90;14.20;;;;;;;28.23;48.73;98847.98;25149;1313;3027207;-57
2022/08/16 10:56:36;;;;;;;24.50;11.90;;;;;;;28.23;48.50;98852.83;25114;1313;3026548;-58
2022/08/16 10:59:06;;;;;;;24.70;12.50;;;;;;;28.33;47.83;98850.55;25036;1313;3026283;-58
2022/08/16 11:01:35;;;;;;;23.20;12.10;;;;;;;28.37;48.17;98847.05;25001;1313;3058977;-60
2022/08/16 11:04:05;;;;;;;21.20;12.40;;;;;;;28.34;48.24;98848.67;25048;1313;3026493;-57
2022/08/16 11:06:35;;;;;;;25.50;13.80;;;;;;;28.25;48.83;98850.09;25023;1313;3055325;-58
2022/08/16 11:09:04;;;;;;;22.70;12.50;;;;;;;28.21;49.49;98848.19;25128;1313;3026732;-61
2022/08/16 11:11:33;;;;;;;20.70;11.60;;;;;;;28.20;49.79;98850.90;25048;1313;3055019;-66
2022/08/16 11:14:02;;;;;;;19.70;12.60;;;;;;;28.14;49.81;98845.59;25104;1313;3026490;-64
2022/08/16 11:16:32;;;;;;;24.00;11.20;;;;;;;28.21;50.22;98848.48;25081;1315;3050850;-65
2022/08/16 11:19:02;;;;;;;17.70;11.80;;;;;;;28.25;50.10;98846.89;25026;1315;3026361;-61
2022/08/16 11:21:32;;;;;;;20.70;11.10;;;;;;;28.23;49.93;98840.69;25095;1313;3026352;-66
2022/08/16 11:24:01;;;;;;;21.30;11.60;;;;;;;28.23;50.34;98841.05;25050;1312;3026584;-63
2022/08/16 11:26:31;;;;;;;23.60;11.70;;;;;;;28.26;49.63;98844.77;25015;1316;3026801;-65